createdAt,value
2019-01-19T00:00:56.351Z,0.00
2019-01-19T00:01:56.534Z,0.00
2019-01-19T00:02:56.702Z,0.00
2019-01-19T00:03:56.888Z,0.00
2019-01-19T00:04:57.065Z,0.00
2019-01-19T00:05:57.251Z,0.00
2019-01-19T00:06:57.427Z,0.00
2019-01-19T00:07:57.602Z,0.00
2019-01-19T00:08:57.785Z,0.00
2019-01-19T00:09:57.956Z,0.00
2019-01-19T00:10:58.140Z,0.00
2019-01-19T00:11:58.308Z,0.00
2019-01-19T00:12:58.495Z,0.00
2019-01-19T00:13:58.678Z,0.00
2019-01-19T00:14:58.840Z,0.00
2019-01-19T00:15:59.028Z,0.00
2019-01-19T00:16:59.204Z,0.00
2019-01-19T00:17:59.375Z,0.00
2019-01-19T00:18:59.557Z,0.00
2019-01-19T00:19:59.728Z,0.00
2019-01-19T00:20:59.907Z,0.00
2019-01-19T00:22:00.079Z,0.00
2019-01-19T00:23:00.254Z,0.00
2019-01-19T00:24:00.431Z,0.00
2019-01-19T00:25:00.621Z,0.00
2019-01-19T00:26:00.799Z,0.00
2019-01-19T00:27:00.975Z,0.00
2019-01-19T00:28:01.156Z,0.00
2019-01-19T00:29:01.336Z,0.00
2019-01-19T00:30:01.508Z,0.00
2019-01-19T00:31:01.677Z,0.00
2019-01-19T00:32:01.865Z,0.00
2019-01-19T00:33:02.034Z,0.00
2019-01-19T00:34:02.221Z,0.00
2019-01-19T00:35:02.403Z,0.00
2019-01-19T00:36:02.574Z,0.00
2019-01-19T00:37:02.745Z,0.00
2019-01-19T00:38:02.920Z,0.00
2019-01-19T00:39:03.096Z,0.00
2019-01-19T00:40:03.271Z,0.00
2019-01-19T00:41:03.443Z,0.00
2019-01-19T00:42:03.624Z,0.00
2019-01-19T00:43:03.799Z,0.00
2019-01-19T00:44:03.973Z,0.00
2019-01-19T00:45:04.147Z,0.00
2019-01-19T00:46:04.334Z,0.00
2019-01-19T00:47:04.505Z,0.00
2019-01-19T00:48:04.696Z,0.00
2019-01-19T00:49:04.873Z,0.00
2019-01-19T00:50:05.045Z,0.00
2019-01-19T00:51:05.223Z,0.00
2019-01-19T00:52:05.396Z,0.00
2019-01-19T00:53:05.568Z,0.00
2019-01-19T00:54:05.749Z,0.00
2019-01-19T00:55:05.926Z,0.00
2019-01-19T00:56:06.111Z,0.00
2019-01-19T00:57:06.290Z,0.00
2019-01-19T00:58:06.462Z,0.00
2019-01-19T00:59:06.658Z,0.00
2019-01-19T01:00:06.824Z,0.00
2019-01-19T01:01:07.019Z,0.00
2019-01-19T01:02:07.191Z,0.00
2019-01-19T01:03:07.363Z,0.00
2019-01-19T01:04:07.545Z,0.00
2019-01-19T01:05:07.721Z,0.00
2019-01-19T01:06:07.899Z,0.00
2019-01-19T01:07:08.078Z,0.00
2019-01-19T01:08:08.253Z,0.00
2019-01-19T01:09:08.456Z,0.00
2019-01-19T01:10:08.618Z,0.00
2019-01-19T01:11:08.790Z,0.00
2019-01-19T01:12:08.971Z,0.00
2019-01-19T01:13:09.152Z,0.00
2019-01-19T01:14:09.333Z,0.00
2019-01-19T01:15:09.507Z,0.00
2019-01-19T01:16:09.695Z,0.00
2019-01-19T01:17:09.879Z,0.00
2019-01-19T01:18:10.044Z,0.00
2019-01-19T01:19:10.219Z,0.00
2019-01-19T01:20:10.377Z,0.00
2019-01-19T01:21:10.550Z,0.00
2019-01-19T01:22:10.727Z,0.00
2019-01-19T01:23:10.907Z,0.00
2019-01-19T01:24:11.081Z,0.00
2019-01-19T01:25:11.259Z,0.00
2019-01-19T01:26:11.440Z,0.00
2019-01-19T01:27:11.606Z,0.00
2019-01-19T01:28:11.783Z,0.00
2019-01-19T01:29:11.959Z,0.00
2019-01-19T01:30:12.134Z,0.00
2019-01-19T01:31:12.311Z,0.00
2019-01-19T01:32:12.487Z,0.00
2019-01-19T01:33:12.658Z,0.00
2019-01-19T01:34:12.836Z,0.00
2019-01-19T01:35:13.011Z,0.00
2019-01-19T01:36:13.186Z,0.00
2019-01-19T01:37:13.361Z,0.00
2019-01-19T01:38:13.540Z,0.00
2019-01-19T01:39:13.711Z,0.00
2019-01-19T01:40:13.888Z,0.00
2019-01-19T01:41:14.061Z,0.00
2019-01-19T01:42:14.234Z,0.00
2019-01-19T01:43:14.409Z,0.00
2019-01-19T01:44:14.585Z,0.00
2019-01-19T01:45:14.762Z,0.00
2019-01-19T01:46:14.937Z,0.00
2019-01-19T01:47:15.115Z,0.00
2019-01-19T01:48:15.289Z,0.00
2019-01-19T01:49:15.467Z,0.00
2019-01-19T01:50:15.653Z,0.00
2019-01-19T01:51:15.822Z,0.00
2019-01-19T01:52:15.994Z,0.00
2019-01-19T01:53:16.170Z,0.00
2019-01-19T01:54:16.347Z,0.00
2019-01-19T01:55:16.522Z,0.00
2019-01-19T01:56:16.705Z,0.00
2019-01-19T01:57:16.880Z,0.00
2019-01-19T01:58:17.053Z,0.00
2019-01-19T01:59:17.235Z,0.00
2019-01-19T02:00:17.414Z,0.00
2019-01-19T02:01:17.598Z,0.00
2019-01-19T02:02:17.774Z,0.00
2019-01-19T02:03:17.953Z,0.00
2019-01-19T02:04:18.131Z,0.00
2019-01-19T02:05:18.306Z,0.00
2019-01-19T02:06:18.478Z,0.00
2019-01-19T02:07:18.671Z,0.00
2019-01-19T02:08:18.843Z,0.00
2019-01-19T02:09:19.408Z,0.00
2019-01-19T02:10:19.212Z,0.00
2019-01-19T02:11:19.390Z,0.00
2019-01-19T02:12:19.569Z,0.00
2019-01-19T02:13:19.742Z,0.00
2019-01-19T02:14:19.919Z,0.00
2019-01-19T02:15:20.091Z,0.00
2019-01-19T02:16:20.280Z,0.00
2019-01-19T02:17:20.456Z,0.00
2019-01-19T02:18:20.635Z,0.00
2019-01-19T02:19:20.811Z,0.00
2019-01-19T02:20:20.990Z,0.00
2019-01-19T02:21:21.163Z,0.00
2019-01-19T02:22:21.339Z,0.00
2019-01-19T02:23:21.518Z,0.00
2019-01-19T02:24:21.694Z,0.00
2019-01-19T02:25:21.878Z,0.00
2019-01-19T02:26:22.040Z,0.00
2019-01-19T02:27:22.230Z,0.00
2019-01-19T02:28:22.411Z,0.00
2019-01-19T02:29:22.586Z,0.00
2019-01-19T02:30:22.757Z,0.00
2019-01-19T02:31:22.931Z,0.00
2019-01-19T02:32:23.113Z,0.00
2019-01-19T02:33:23.300Z,0.00
2019-01-19T02:34:23.463Z,0.00
2019-01-19T02:35:23.641Z,0.00
2019-01-19T02:36:23.811Z,0.00
2019-01-19T02:37:23.995Z,0.00
2019-01-19T02:38:24.172Z,0.00
2019-01-19T02:39:24.352Z,0.00
2019-01-19T02:40:24.545Z,0.00
2019-01-19T02:41:24.700Z,0.00
2019-01-19T02:42:24.877Z,0.00
2019-01-19T02:43:25.053Z,0.00
2019-01-19T02:44:25.244Z,0.00
2019-01-19T02:45:25.421Z,0.00
2019-01-19T02:46:25.605Z,0.00
2019-01-19T02:47:25.780Z,0.00
2019-01-19T02:48:25.957Z,0.00
2019-01-19T02:49:26.135Z,0.00
2019-01-19T02:50:26.312Z,0.00
2019-01-19T02:51:26.496Z,0.00
2019-01-19T02:52:26.683Z,0.00
2019-01-19T02:53:26.858Z,0.00
2019-01-19T02:54:27.026Z,0.00
2019-01-19T02:55:27.196Z,0.00
2019-01-19T02:56:27.377Z,0.00
2019-01-19T02:57:27.571Z,0.00
2019-01-19T02:58:27.734Z,0.00
2019-01-19T02:59:27.915Z,0.00
2019-01-19T03:00:28.089Z,0.00
2019-01-19T03:01:28.302Z,0.00
2019-01-19T03:02:28.475Z,0.00
2019-01-19T03:03:28.629Z,0.00
2019-01-19T03:04:28.809Z,0.00
2019-01-19T03:05:28.997Z,0.00
2019-01-19T03:06:29.164Z,0.00
2019-01-19T03:07:29.337Z,0.00
2019-01-19T03:08:29.516Z,0.00
2019-01-19T03:09:29.692Z,0.00
2019-01-19T03:10:29.881Z,0.00
2019-01-19T03:11:30.055Z,0.00
2019-01-19T03:12:30.230Z,0.00
2019-01-19T03:13:30.407Z,0.00
2019-01-19T03:14:30.598Z,0.00
2019-01-19T03:15:31.572Z,0.00
2019-01-19T03:16:30.939Z,0.00
2019-01-19T03:17:31.112Z,0.00
2019-01-19T03:18:31.287Z,0.00
2019-01-19T03:19:31.482Z,0.00
2019-01-19T03:20:31.652Z,0.00
2019-01-19T03:21:31.833Z,0.00
2019-01-19T03:22:32.015Z,0.00
2019-01-19T03:23:32.180Z,0.00
2019-01-19T03:24:32.358Z,0.00
2019-01-19T03:25:32.532Z,0.00
2019-01-19T03:26:32.706Z,0.00
2019-01-19T03:27:32.886Z,0.00
2019-01-19T03:28:33.059Z,0.00
2019-01-19T03:29:33.231Z,0.00
2019-01-19T03:30:33.420Z,0.00
2019-01-19T03:31:33.595Z,0.00
2019-01-19T03:32:33.777Z,0.00
2019-01-19T03:33:33.957Z,0.00
2019-01-19T03:34:34.128Z,0.00
2019-01-19T03:35:34.297Z,0.00
2019-01-19T03:36:34.479Z,0.00
2019-01-19T03:37:34.651Z,0.00
2019-01-19T03:38:34.825Z,0.00
2019-01-19T03:39:35.005Z,0.00
2019-01-19T03:40:35.181Z,0.00
2019-01-19T03:41:35.355Z,0.00
2019-01-19T03:42:35.531Z,0.00
2019-01-19T03:43:35.705Z,0.00
2019-01-19T03:44:35.882Z,0.00
2019-01-19T03:45:36.129Z,0.00
2019-01-19T03:46:36.229Z,0.00
2019-01-19T03:47:36.401Z,0.00
2019-01-19T03:48:36.577Z,0.00
2019-01-19T03:49:36.753Z,0.00
2019-01-19T03:50:36.930Z,0.00
2019-01-19T03:51:37.102Z,0.00
2019-01-19T03:52:37.284Z,0.00
2019-01-19T03:53:37.455Z,0.00
2019-01-19T03:54:37.633Z,0.00
2019-01-19T03:55:37.804Z,0.00
2019-01-19T03:56:37.984Z,0.00
2019-01-19T03:57:38.157Z,0.00
2019-01-19T03:58:38.338Z,0.00
2019-01-19T03:59:38.509Z,0.00
2019-01-19T04:00:38.683Z,0.00
2019-01-19T04:01:38.863Z,0.00
2019-01-19T04:02:39.040Z,0.00
2019-01-19T04:03:39.211Z,0.00
2019-01-19T04:04:39.385Z,0.00
2019-01-19T04:05:39.564Z,0.00
2019-01-19T04:06:39.744Z,0.00
2019-01-19T04:07:39.922Z,0.00
2019-01-19T04:08:40.097Z,0.00
2019-01-19T04:09:40.275Z,0.00
2019-01-19T04:10:40.447Z,0.00
2019-01-19T04:11:40.623Z,0.00
2019-01-19T04:12:40.800Z,0.00
2019-01-19T04:13:40.975Z,0.00
2019-01-19T04:14:41.159Z,0.00
2019-01-19T04:15:41.336Z,0.00
2019-01-19T04:16:41.512Z,0.00
2019-01-19T04:17:41.687Z,0.00
2019-01-19T04:18:41.870Z,0.00
2019-01-19T04:19:42.039Z,0.00
2019-01-19T04:20:42.223Z,0.00
2019-01-19T04:21:42.395Z,0.00
2019-01-19T04:22:42.573Z,0.00
2019-01-19T04:23:42.752Z,0.00
2019-01-19T04:24:42.920Z,0.00
2019-01-19T04:25:43.098Z,0.00
2019-01-19T04:26:43.276Z,0.00
2019-01-19T04:27:43.460Z,0.00
2019-01-19T04:28:43.631Z,0.00
2019-01-19T04:29:43.804Z,0.00
2019-01-19T04:30:43.982Z,0.00
2019-01-19T04:31:44.159Z,0.00
2019-01-19T04:32:44.333Z,0.00
2019-01-19T04:33:44.510Z,0.00
2019-01-19T04:34:44.687Z,0.00
2019-01-19T04:35:44.868Z,0.00
2019-01-19T04:36:45.036Z,0.00
2019-01-19T04:37:45.212Z,0.00
2019-01-19T04:38:45.384Z,0.00
2019-01-19T04:39:45.564Z,0.00
2019-01-19T04:40:45.741Z,0.00
2019-01-19T04:41:45.914Z,0.00
2019-01-19T04:42:46.086Z,0.00
2019-01-19T04:43:46.261Z,0.00
2019-01-19T04:44:46.441Z,0.00
2019-01-19T04:45:46.615Z,0.00
2019-01-19T04:46:46.786Z,0.00
2019-01-19T04:47:46.965Z,0.00
2019-01-19T04:48:47.139Z,0.00
2019-01-19T04:49:47.314Z,0.00
2019-01-19T04:50:47.484Z,0.00
2019-01-19T04:51:47.657Z,0.00
2019-01-19T04:52:47.832Z,0.00
2019-01-19T04:53:48.018Z,0.00
2019-01-19T04:54:48.466Z,0.00
2019-01-19T04:55:48.372Z,0.00
2019-01-19T04:56:48.551Z,0.00
2019-01-19T04:57:48.738Z,0.00
2019-01-19T04:58:48.900Z,0.00
2019-01-19T04:59:49.085Z,0.00
2019-01-19T05:00:49.259Z,0.00
2019-01-19T05:01:49.434Z,0.00
2019-01-19T05:02:49.613Z,0.00
2019-01-19T05:03:49.789Z,0.00
2019-01-19T05:04:49.966Z,0.00
2019-01-19T05:05:50.148Z,0.00
2019-01-19T05:06:50.311Z,0.00
2019-01-19T05:07:50.495Z,0.00
2019-01-19T05:08:50.669Z,0.00
2019-01-19T05:09:50.848Z,0.00
2019-01-19T05:10:51.018Z,0.00
2019-01-19T05:11:51.187Z,0.00
2019-01-19T05:12:51.373Z,0.00
2019-01-19T05:13:51.548Z,0.00
2019-01-19T05:14:51.741Z,0.00
2019-01-19T05:15:51.902Z,0.00
2019-01-19T05:16:52.079Z,0.00
2019-01-19T05:17:52.258Z,0.00
2019-01-19T05:18:52.428Z,0.00
2019-01-19T05:19:52.606Z,0.00
2019-01-19T05:20:52.785Z,0.00
2019-01-19T05:21:52.960Z,0.00
2019-01-19T05:22:53.131Z,0.00
2019-01-19T05:23:53.302Z,0.00
2019-01-19T05:24:53.475Z,0.00
2019-01-19T05:25:53.653Z,0.00
2019-01-19T05:26:53.827Z,0.00
2019-01-19T05:27:54.012Z,0.00
2019-01-19T05:28:54.199Z,0.00
2019-01-19T05:29:54.361Z,0.00
2019-01-19T05:30:54.536Z,0.00
2019-01-19T05:31:54.701Z,0.00
2019-01-19T05:32:54.893Z,0.00
2019-01-19T05:33:55.067Z,0.00
2019-01-19T05:34:55.243Z,0.00
2019-01-19T05:35:55.419Z,0.00
2019-01-19T05:36:55.588Z,0.00
2019-01-19T05:37:55.770Z,0.00
2019-01-19T05:38:55.944Z,0.00
2019-01-19T05:39:56.121Z,0.00
2019-01-19T05:40:56.295Z,0.00
2019-01-19T05:41:56.476Z,0.00
2019-01-19T05:42:56.643Z,0.00
2019-01-19T05:43:56.821Z,0.00
2019-01-19T05:44:57.002Z,0.00
2019-01-19T05:45:57.198Z,0.00
2019-01-19T05:46:57.349Z,0.00
2019-01-19T05:47:57.522Z,0.00
2019-01-19T05:48:57.700Z,0.00
2019-01-19T05:49:57.870Z,0.00
2019-01-19T05:50:58.045Z,0.00
2019-01-19T05:51:58.217Z,0.00
2019-01-19T05:52:58.389Z,0.00
2019-01-19T05:53:58.567Z,0.00
2019-01-19T05:54:58.740Z,0.00
2019-01-19T05:55:58.920Z,0.00
2019-01-19T05:56:59.095Z,0.00
2019-01-19T05:57:59.268Z,0.00
2019-01-19T05:58:59.438Z,0.00
2019-01-19T05:59:59.614Z,0.00
2019-01-19T06:00:59.794Z,0.00
2019-01-19T06:01:59.967Z,0.00
2019-01-19T06:03:00.148Z,0.00
2019-01-19T06:04:00.324Z,0.00
2019-01-19T06:05:00.496Z,0.00
2019-01-19T06:06:00.677Z,0.00
2019-01-19T06:07:00.867Z,0.00
2019-01-19T06:08:01.033Z,0.00
2019-01-19T06:09:01.201Z,0.00
2019-01-19T06:10:01.383Z,0.00
2019-01-19T06:11:01.557Z,0.00
2019-01-19T06:12:01.726Z,0.00
2019-01-19T06:13:01.898Z,0.00
2019-01-19T06:14:02.087Z,0.00
2019-01-19T06:15:02.253Z,0.00
2019-01-19T06:16:02.430Z,0.00
2019-01-19T06:17:02.606Z,0.00
2019-01-19T06:18:02.783Z,0.00
2019-01-19T06:19:02.957Z,0.00
2019-01-19T06:20:03.129Z,0.00
2019-01-19T06:21:03.296Z,0.00
2019-01-19T06:22:03.467Z,0.00
2019-01-19T06:23:03.646Z,0.00
2019-01-19T06:24:03.828Z,0.00
2019-01-19T06:25:04.003Z,0.00
2019-01-19T06:26:04.178Z,0.00
2019-01-19T06:27:04.405Z,0.00
2019-01-19T06:28:04.528Z,0.00
2019-01-19T06:29:04.711Z,0.00
2019-01-19T06:30:04.886Z,0.00
2019-01-19T06:31:05.064Z,0.00
2019-01-19T06:32:05.249Z,0.00
2019-01-19T06:33:05.420Z,4.00
2019-01-19T06:34:05.656Z,4.00
2019-01-19T06:35:05.774Z,0.00
2019-01-19T06:36:05.937Z,4.00
2019-01-19T06:37:06.117Z,4.00
2019-01-19T06:38:06.290Z,4.00
2019-01-19T06:39:06.465Z,4.00
2019-01-19T06:40:06.644Z,4.00
2019-01-19T06:41:06.815Z,8.00
2019-01-19T06:42:06.991Z,8.00
2019-01-19T06:43:07.166Z,8.00
2019-01-19T06:44:07.331Z,12.00
2019-01-19T06:45:07.512Z,12.00
2019-01-19T06:46:07.694Z,16.00
2019-01-19T06:47:07.867Z,20.00
2019-01-19T06:48:08.046Z,20.00
2019-01-19T06:49:08.220Z,24.00
2019-01-19T06:50:08.402Z,32.00
2019-01-19T06:51:08.581Z,36.00
2019-01-19T06:52:08.760Z,44.00
2019-01-19T06:53:08.935Z,48.00
2019-01-19T06:54:09.120Z,56.00
2019-01-19T06:55:09.281Z,64.00
2019-01-19T06:56:09.454Z,76.00
2019-01-19T06:57:09.649Z,92.00
2019-01-19T06:58:09.807Z,104.00
2019-01-19T06:59:17.101Z,120.00
2019-01-19T07:00:10.150Z,136.00
2019-01-19T07:01:10.331Z,148.00
2019-01-19T07:02:10.501Z,172.00
2019-01-19T07:03:10.672Z,192.00
2019-01-19T07:04:10.847Z,220.00
2019-01-19T07:05:11.025Z,248.00
2019-01-19T07:06:11.197Z,272.00
2019-01-19T07:07:11.370Z,300.00
2019-01-19T07:08:11.546Z,328.00
2019-01-19T07:09:11.719Z,356.00
2019-01-19T07:10:11.894Z,388.00
2019-01-19T07:11:12.073Z,424.00
2019-01-19T07:12:12.252Z,476.00
2019-01-19T07:13:12.430Z,532.00
2019-01-19T07:14:12.601Z,592.00
2019-01-19T07:15:12.782Z,656.00
2019-01-19T07:16:12.963Z,720.00
2019-01-19T07:17:13.143Z,788.00
2019-01-19T07:18:13.323Z,864.00
2019-01-19T07:19:13.489Z,940.00
2019-01-19T07:20:13.663Z,1020.00
2019-01-19T07:21:13.842Z,1104.00
2019-01-19T07:22:14.024Z,1184.00
2019-01-19T07:23:14.196Z,1284.00
2019-01-19T07:24:14.367Z,1376.00
2019-01-19T07:25:14.546Z,1444.00
2019-01-19T07:26:14.719Z,1512.00
2019-01-19T07:27:14.904Z,1592.00
2019-01-19T07:28:15.081Z,1688.00
2019-01-19T07:29:15.253Z,1788.00
2019-01-19T07:30:15.422Z,1876.00
2019-01-19T07:31:15.635Z,1964.00
2019-01-19T07:32:15.796Z,2072.00
2019-01-19T07:33:15.963Z,2192.00
2019-01-19T07:34:16.142Z,2340.00
2019-01-19T07:35:16.327Z,2524.00
2019-01-19T07:36:16.505Z,2864.00
2019-01-19T07:37:16.678Z,3244.00
2019-01-19T07:38:16.863Z,3408.00
2019-01-19T07:39:17.025Z,3352.00
2019-01-19T07:40:17.201Z,3364.00
2019-01-19T07:41:17.379Z,3252.00
2019-01-19T07:42:17.551Z,3256.00
2019-01-19T07:43:17.864Z,3388.00
2019-01-19T07:44:17.915Z,3616.00
2019-01-19T07:45:18.101Z,3772.00
2019-01-19T07:46:19.199Z,3688.00
2019-01-19T07:47:18.469Z,3420.00
2019-01-19T07:48:18.631Z,3444.00
2019-01-19T07:49:18.803Z,4048.00
2019-01-19T07:50:19.014Z,4560.00
2019-01-19T07:51:19.191Z,4164.00
2019-01-19T07:52:19.365Z,3948.00
2019-01-19T07:53:19.537Z,4928.00
2019-01-19T07:54:19.720Z,6060.00
2019-01-19T07:55:19.894Z,6708.00
2019-01-19T07:56:20.071Z,6772.00
2019-01-19T07:57:20.233Z,7736.00
2019-01-19T07:58:20.431Z,12960.00
2019-01-19T07:59:20.636Z,17984.00
2019-01-19T08:00:21.806Z,20992.00
2019-01-19T08:01:21.005Z,22848.00
2019-01-19T08:02:21.171Z,25152.00
2019-01-19T08:03:21.346Z,26176.00
2019-01-19T08:04:21.527Z,27424.00
2019-01-19T08:05:21.702Z,28672.00
2019-01-19T08:06:21.879Z,28864.00
2019-01-19T08:07:22.065Z,29792.00
2019-01-19T08:08:22.229Z,31200.00
2019-01-19T08:09:22.407Z,28768.00
2019-01-19T08:10:22.586Z,26016.00
2019-01-19T08:11:22.787Z,22656.00
2019-01-19T08:12:22.959Z,22048.00
2019-01-19T08:13:23.149Z,20256.00
2019-01-19T08:14:23.324Z,18432.00
2019-01-19T08:15:23.504Z,19168.00
2019-01-19T08:16:23.683Z,20576.00
2019-01-19T08:17:23.867Z,22336.00
2019-01-19T08:18:24.047Z,20480.00
2019-01-19T08:19:24.240Z,21088.00
2019-01-19T08:20:24.420Z,23968.00
2019-01-19T08:21:24.611Z,26944.00
2019-01-19T08:22:24.793Z,30144.00
2019-01-19T08:23:26.175Z,27392.00
2019-01-19T08:24:25.157Z,31616.00
2019-01-19T08:25:25.348Z,33280.00
2019-01-19T08:26:25.527Z,35168.00
2019-01-19T08:27:25.716Z,24672.00
2019-01-19T08:28:25.902Z,18464.00
2019-01-19T08:29:26.092Z,22240.00
2019-01-19T08:30:26.276Z,21152.00
2019-01-19T08:31:26.451Z,26816.00
2019-01-19T08:32:26.635Z,32256.00
2019-01-19T08:33:26.819Z,25696.00
2019-01-19T08:34:26.998Z,34016.00
2019-01-19T08:35:27.179Z,37888.00
2019-01-19T08:36:27.371Z,38112.00
2019-01-19T08:37:27.554Z,43264.00
2019-01-19T08:38:27.746Z,43968.00
2019-01-19T08:39:27.927Z,28384.00
2019-01-19T08:40:28.110Z,34592.00
2019-01-19T08:41:28.300Z,40768.00
2019-01-19T08:42:28.490Z,52512.00
2019-01-19T08:43:28.668Z,43712.00
2019-01-19T08:44:28.853Z,53280.00
2019-01-19T08:45:29.030Z,34944.00
2019-01-19T08:46:29.216Z,40384.00
2019-01-19T08:47:29.401Z,51456.00
2019-01-19T08:48:29.586Z,54816.00
2019-01-19T08:49:29.763Z,58112.00
2019-01-19T08:50:29.949Z,59424.00
2019-01-19T08:51:30.133Z,36768.00
2019-01-19T08:52:30.319Z,45408.00
2019-01-19T08:53:30.507Z,48928.00
2019-01-19T08:54:30.693Z,43552.00
2019-01-19T08:55:30.900Z,34752.00
2019-01-19T08:56:31.079Z,35616.00
2019-01-19T08:57:31.271Z,42976.00
2019-01-19T08:58:31.458Z,36064.00
2019-01-19T08:59:31.641Z,49632.00
2019-01-19T09:00:31.835Z,34144.00
2019-01-19T09:01:32.019Z,54048.00
2019-01-19T09:02:32.205Z,42208.00
2019-01-19T09:03:32.418Z,48640.00
2019-01-19T09:04:32.566Z,30048.00
2019-01-19T09:05:32.746Z,24480.00
2019-01-19T09:06:32.936Z,26528.00
2019-01-19T09:07:33.774Z,28384.00
2019-01-19T09:08:33.315Z,27040.00
2019-01-19T09:09:35.691Z,24320.00
2019-01-19T09:10:33.623Z,24640.00
2019-01-19T09:11:33.805Z,32256.00
2019-01-19T09:12:33.991Z,19584.00
2019-01-19T09:13:34.175Z,22816.00
2019-01-19T09:14:34.359Z,21600.00
2019-01-19T09:15:34.559Z,21120.00
2019-01-19T09:16:39.619Z,21824.00
2019-01-19T09:17:34.945Z,38048.00
2019-01-19T09:18:35.123Z,44448.00
2019-01-19T09:19:35.305Z,29888.00
2019-01-19T09:20:35.498Z,28672.00
2019-01-19T09:21:35.694Z,34656.00
2019-01-19T09:22:35.878Z,37440.00
2019-01-19T09:23:36.063Z,42944.00
2019-01-19T09:24:36.240Z,30400.00
2019-01-19T09:25:36.424Z,41184.00
2019-01-19T09:26:36.606Z,46560.00
2019-01-19T09:27:36.802Z,49088.00
2019-01-19T09:28:36.987Z,55232.00
2019-01-19T09:29:37.170Z,58080.00
2019-01-19T09:30:37.358Z,64768.00
2019-01-19T09:31:37.541Z,49664.00
2019-01-19T09:32:37.726Z,52128.00
2019-01-19T09:33:37.908Z,41088.00
2019-01-19T09:34:38.093Z,39360.00
2019-01-19T09:35:38.276Z,44640.00
2019-01-19T09:36:38.484Z,43936.00
2019-01-19T09:37:40.972Z,39264.00
2019-01-19T09:38:38.837Z,31904.00
2019-01-19T09:39:39.025Z,32096.00
2019-01-19T09:40:39.226Z,29536.00
2019-01-19T09:41:39.420Z,31008.00
2019-01-19T09:42:39.606Z,35904.00
2019-01-19T09:43:39.787Z,37888.00
2019-01-19T09:44:39.977Z,33888.00
2019-01-19T09:45:40.161Z,54496.00
2019-01-19T09:46:40.348Z,43360.00
2019-01-19T09:47:40.539Z,42752.00
2019-01-19T09:48:40.719Z,42816.00
2019-01-19T09:49:40.904Z,45312.00
2019-01-19T09:50:41.090Z,34048.00
2019-01-19T09:51:41.287Z,38816.00
2019-01-19T09:52:41.468Z,40128.00
2019-01-19T09:53:41.658Z,40448.00
2019-01-19T09:54:41.840Z,36544.00
2019-01-19T09:55:42.028Z,35072.00
2019-01-19T09:56:42.225Z,35872.00
2019-01-19T09:57:42.397Z,38944.00
2019-01-19T09:58:42.598Z,40192.00
2019-01-19T09:59:42.786Z,41312.00
2019-01-19T10:00:45.786Z,42720.00
2019-01-19T10:01:43.163Z,43296.00
2019-01-19T10:02:43.337Z,43648.00
2019-01-19T10:03:43.520Z,45056.00
2019-01-19T10:04:43.704Z,46656.00
2019-01-19T10:05:43.906Z,46880.00
2019-01-19T10:06:44.101Z,46208.00
2019-01-19T10:07:48.512Z,45696.00
2019-01-19T10:08:44.473Z,45728.00
2019-01-19T10:09:44.664Z,45696.00
2019-01-19T10:10:44.850Z,45312.00
2019-01-19T10:11:45.038Z,44928.00
2019-01-19T10:12:45.235Z,45120.00
2019-01-19T10:13:45.447Z,45152.00
2019-01-19T10:14:45.627Z,44352.00
2019-01-19T10:15:45.816Z,45120.00
2019-01-19T10:16:45.998Z,43776.00
2019-01-19T10:17:46.193Z,44736.00
2019-01-19T10:18:46.379Z,44128.00
2019-01-19T10:19:46.573Z,42080.00
2019-01-19T10:20:46.764Z,41120.00
2019-01-19T10:21:46.956Z,40864.00
2019-01-19T10:22:47.155Z,41536.00
2019-01-19T10:23:47.343Z,42368.00
2019-01-19T10:24:47.526Z,43424.00
2019-01-19T10:25:47.713Z,44096.00
2019-01-19T10:26:47.901Z,44128.00
2019-01-19T10:27:48.091Z,44448.00
2019-01-19T10:28:48.274Z,43904.00
2019-01-19T10:29:48.479Z,42432.00
2019-01-19T10:30:48.672Z,41376.00
2019-01-19T10:31:48.858Z,40256.00
2019-01-19T10:32:49.046Z,39104.00
2019-01-19T10:33:49.240Z,38016.00
2019-01-19T10:34:49.421Z,37568.00
2019-01-19T10:35:49.608Z,37184.00
2019-01-19T10:36:49.800Z,36992.00
2019-01-19T10:37:56.176Z,37568.00
2019-01-19T10:38:50.190Z,39232.00
2019-01-19T10:39:50.390Z,40544.00
2019-01-19T10:40:50.596Z,40192.00
2019-01-19T10:41:50.793Z,39616.00
2019-01-19T10:42:50.985Z,37760.00
2019-01-19T10:43:51.177Z,37408.00
2019-01-19T10:44:51.375Z,37856.00
2019-01-19T10:45:51.561Z,37632.00
2019-01-19T10:46:51.757Z,38016.00
2019-01-19T10:47:51.954Z,39360.00
2019-01-19T10:48:52.153Z,40832.00
2019-01-19T10:49:52.361Z,40192.00
2019-01-19T10:50:52.525Z,39840.00
2019-01-19T10:51:59.227Z,40896.00
2019-01-19T10:52:52.896Z,42240.00
2019-01-19T10:53:53.086Z,41408.00
2019-01-19T10:54:53.286Z,39616.00
2019-01-19T10:55:53.479Z,38624.00
2019-01-19T10:56:53.669Z,38336.00
2019-01-19T10:57:53.859Z,39136.00
2019-01-19T10:58:54.063Z,39808.00
2019-01-19T10:59:54.250Z,41344.00
2019-01-19T11:00:54.437Z,42016.00
2019-01-19T11:01:54.622Z,41952.00
2019-01-19T11:02:54.812Z,41472.00
2019-01-19T11:03:54.997Z,41344.00
2019-01-19T11:04:55.194Z,41760.00
2019-01-19T11:05:55.386Z,42272.00
2019-01-19T11:06:55.584Z,42752.00
2019-01-19T11:07:55.772Z,42560.00
2019-01-19T11:08:55.966Z,44448.00
2019-01-19T11:09:56.150Z,45632.00
2019-01-19T11:10:56.337Z,46304.00
2019-01-19T11:11:56.540Z,44064.00
2019-01-19T11:12:56.718Z,43808.00
2019-01-19T11:13:56.908Z,42720.00
2019-01-19T11:14:57.098Z,41248.00
2019-01-19T11:15:57.285Z,39616.00
2019-01-19T11:16:57.479Z,38080.00
2019-01-19T11:17:57.673Z,37440.00
2019-01-19T11:18:57.869Z,37056.00
2019-01-19T11:19:58.049Z,36992.00
2019-01-19T11:20:58.235Z,36960.00
2019-01-19T11:21:58.425Z,36160.00
2019-01-19T11:22:58.621Z,35104.00
2019-01-19T11:23:58.815Z,34752.00
2019-01-19T11:24:59.000Z,34752.00
2019-01-19T11:25:59.197Z,34304.00
2019-01-19T11:26:59.390Z,33760.00
2019-01-19T11:27:59.582Z,34368.00
2019-01-19T11:28:59.771Z,35744.00
2019-01-19T11:29:59.952Z,37056.00
2019-01-19T11:31:00.142Z,37920.00
2019-01-19T11:32:00.341Z,38624.00
2019-01-19T11:33:00.528Z,38784.00
2019-01-19T11:34:00.718Z,38240.00
2019-01-19T11:35:00.914Z,37184.00
2019-01-19T11:36:01.102Z,36192.00
2019-01-19T11:37:01.292Z,35200.00
2019-01-19T11:38:01.480Z,34720.00
2019-01-19T11:39:01.676Z,34816.00
2019-01-19T11:40:01.864Z,35584.00
2019-01-19T11:41:02.049Z,36864.00
2019-01-19T11:42:02.244Z,37984.00
2019-01-19T11:43:02.432Z,39520.00
2019-01-19T11:44:02.624Z,40768.00
2019-01-19T11:45:02.815Z,40992.00
2019-01-19T11:46:02.999Z,41056.00
2019-01-19T11:47:03.187Z,41504.00
2019-01-19T11:48:03.373Z,41536.00
2019-01-19T11:49:03.567Z,41056.00
2019-01-19T11:50:03.757Z,41312.00
2019-01-19T11:51:03.938Z,41824.00
2019-01-19T11:52:04.138Z,42304.00
2019-01-19T11:53:04.325Z,43072.00
2019-01-19T11:54:04.518Z,43552.00
2019-01-19T11:55:04.705Z,44096.00
2019-01-19T11:56:11.999Z,44576.00
2019-01-19T11:57:05.085Z,44672.00
2019-01-19T11:58:05.273Z,44608.00
2019-01-19T11:59:05.459Z,45344.00
2019-01-19T12:00:05.665Z,45248.00
2019-01-19T12:01:07.244Z,45120.00
2019-01-19T12:02:06.068Z,45056.00
2019-01-19T12:03:06.256Z,46016.00
2019-01-19T12:04:06.442Z,47168.00
2019-01-19T12:05:06.636Z,48512.00
2019-01-19T12:06:06.828Z,50144.00
2019-01-19T12:07:07.015Z,51072.00
2019-01-19T12:08:07.211Z,51008.00
2019-01-19T12:09:07.403Z,50592.00
2019-01-19T12:10:07.591Z,49664.00
2019-01-19T12:11:07.787Z,48448.00
2019-01-19T12:12:07.971Z,48704.00
2019-01-19T12:13:08.173Z,46272.00
2019-01-19T12:14:08.365Z,44448.00
2019-01-19T12:15:09.315Z,45248.00
2019-01-19T12:16:08.752Z,50368.00
2019-01-19T12:17:08.944Z,53376.00
2019-01-19T12:18:09.136Z,53152.00
2019-01-19T12:19:09.331Z,52288.00
2019-01-19T12:20:09.516Z,51168.00
2019-01-19T12:21:09.719Z,50624.00
2019-01-19T12:22:09.917Z,50784.00
2019-01-19T12:23:10.104Z,51264.00
2019-01-19T12:24:10.296Z,52608.00
2019-01-19T12:25:10.497Z,53344.00
2019-01-19T12:26:10.693Z,54624.00
2019-01-19T12:27:10.898Z,53888.00
2019-01-19T12:28:11.085Z,52608.00
2019-01-19T12:29:11.277Z,50752.00
2019-01-19T12:30:11.468Z,49312.00
2019-01-19T12:31:11.661Z,48640.00
2019-01-19T12:32:11.855Z,48768.00
2019-01-19T12:33:12.056Z,47840.00
2019-01-19T12:34:12.242Z,45312.00
2019-01-19T12:35:12.439Z,44320.00
2019-01-19T12:36:12.631Z,45600.00
2019-01-19T12:37:12.821Z,47040.00
2019-01-19T12:38:13.021Z,46912.00